sensor_id;sensor_type;location;lat;lon;timestamp;noise_LAeq;noise_LA_min;noise_LA_max;noise_LA01;noise_LA95
45109;Laerm;30447;48.742;8.972;2023-04-25T00:00:44;40.32;36.20;45.14;;
45109;Laerm;30447;48.742;8.972;2023-04-25T00:03:10;39.15;35.04;45.04;;
45109;Laerm;30447;48.742;8.972;2023-04-25T00:05:37;38.44;33.90;40.89;;
45109;Laerm;30447;48.742;8.972;2023-04-25T00:08:04;38.98;34.69;43.29;;
45109;Laerm;30447;48.742;8.972;2023-04-25T00:10:32;38.27;34.31;41.30;;
45109;Laerm;30447;48.742;8.972;2023-04-25T00:12:59;38.23;33.90;40.53;;
45109;Laerm;30447;48.742;8.972;2023-04-25T00:15:28;38.68;34.31;41.96;;
45109;Laerm;30447;48.742;8.972;2023-04-25T00:17:58;38.76;34.31;41.61;;
45109;Laerm;30447;48.742;8.972;2023-04-25T00:20:24;38.68;34.69;41.61;;
45109;Laerm;30447;48.742;8.972;2023-04-25T00:22:51;38.09;33.90;40.98;;
45109;Laerm;30447;48.742;8.972;2023-04-25T00:25:19;38.70;34.69;42.22;;
45109;Laerm;30447;48.742;8.972;2023-04-25T00:27:46;38.28;34.31;41.75;;
45109;Laerm;30447;48.742;8.972;2023-04-25T00:30:13;38.54;34.69;41.89;;
45109;Laerm;30447;48.742;8.972;2023-04-25T00:32:40;40.09;35.66;45.17;;
45109;Laerm;30447;48.742;8.972;2023-04-25T00:35:07;39.02;35.04;44.04;;
45109;Laerm;30447;48.742;8.972;2023-04-25T00:37:33;39.16;35.36;43.68;;
45109;Laerm;30447;48.742;8.972;2023-04-25T00:39:59;39.17;35.36;44.15;;
45109;Laerm;30447;48.742;8.972;2023-04-25T00:42:26;38.37;33.44;47.26;;
45109;Laerm;30447;48.742;8.972;2023-04-25T00:44:53;38.82;35.04;42.59;;
45109;Laerm;30447;48.742;8.972;2023-04-25T00:47:19;39.23;34.69;44.47;;
45109;Laerm;30447;48.742;8.972;2023-04-25T00:49:46;38.64;35.04;42.16;;
45109;Laerm;30447;48.742;8.972;2023-04-25T00:52:12;39.42;34.69;46.13;;
45109;Laerm;30447;48.742;8.972;2023-04-25T00:54:39;38.85;35.36;42.41;;
45109;Laerm;30447;48.742;8.972;2023-04-25T00:57:06;39.49;35.01;45.01;;
45109;Laerm;30447;48.742;8.972;2023-04-25T00:59:33;39.33;35.36;44.47;;
45109;Laerm;30447;48.742;8.972;2023-04-25T01:02:00;38.66;35.04;43.94;;
45109;Laerm;30447;48.742;8.972;2023-04-25T01:04:27;38.72;33.90;43.46;;
45109;Laerm;30447;48.742;8.972;2023-04-25T01:06:55;38.30;33.44;41.53;;
45109;Laerm;30447;48.742;8.972;2023-04-25T01:09:22;38.75;34.31;50.44;;
45109;Laerm;30447;48.742;8.972;2023-04-25T01:11:50;39.48;33.90;44.54;;
45109;Laerm;30447;48.742;8.972;2023-04-25T01:14:16;39.48;35.94;45.45;;
45109;Laerm;30447;48.742;8.972;2023-04-25T01:16:43;39.13;35.04;45.60;;
45109;Laerm;30447;48.742;8.972;2023-04-25T01:19:11;38.59;34.69;45.94;;
45109;Laerm;30447;48.742;8.972;2023-04-25T01:21:38;38.68;35.36;43.14;;
45109;Laerm;30447;48.742;8.972;2023-04-25T01:24:06;38.39;33.90;43.44;;
45109;Laerm;30447;48.742;8.972;2023-04-25T01:26:33;38.23;34.31;41.06;;
45109;Laerm;30447;48.742;8.972;2023-04-25T01:29:01;37.90;33.90;40.80;;
45109;Laerm;30447;48.742;8.972;2023-04-25T01:31:30;37.89;32.93;40.53;;
45109;Laerm;30447;48.742;8.972;2023-04-25T01:33:57;37.96;33.44;44.15;;
45109;Laerm;30447;48.742;8.972;2023-04-25T01:36:24;38.05;33.44;47.72;;
45109;Laerm;30447;48.742;8.972;2023-04-25T01:38:50;37.80;33.44;46.43;;
45109;Laerm;30447;48.742;8.972;2023-04-25T01:41:17;38.24;33.90;41.75;;
45109;Laerm;30447;48.742;8.972;2023-04-25T01:43:44;37.65;33.44;40.62;;
45109;Laerm;30447;48.742;8.972;2023-04-25T01:46:12;37.90;33.90;41.14;;
45109;Laerm;30447;48.742;8.972;2023-04-25T01:48:38;37.77;33.44;45.27;;
45109;Laerm;30447;48.742;8.972;2023-04-25T01:51:05;37.47;32.93;40.13;;
45109;Laerm;30447;48.742;8.972;2023-04-25T01:53:32;37.67;33.44;40.13;;
45109;Laerm;30447;48.742;8.972;2023-04-25T01:55:58;37.89;33.90;40.62;;
45109;Laerm;30447;48.742;8.972;2023-04-25T01:58:25;38.20;33.90;41.22;;
45109;Laerm;30447;48.742;8.972;2023-04-25T02:00:51;38.78;35.36;42.22;;
45109;Laerm;30447;48.742;8.972;2023-04-25T02:03:17;38.83;35.04;41.61;;
45109;Laerm;30447;48.742;8.972;2023-04-25T02:05:44;38.87;35.36;41.82;;
45109;Laerm;30447;48.742;8.972;2023-04-25T02:08:10;38.75;34.31;41.68;;
45109;Laerm;30447;48.742;8.972;2023-04-25T02:10:37;38.71;35.04;44.51;;
45109;Laerm;30447;48.742;8.972;2023-04-25T02:13:03;38.45;35.04;43.58;;
45109;Laerm;30447;48.742;8.972;2023-04-25T02:15:31;40.30;35.36;43.68;;
45109;Laerm;30447;48.742;8.972;2023-04-25T02:17:57;46.58;35.66;59.67;;
45109;Laerm;30447;48.742;8.972;2023-04-25T02:20:28;38.33;34.69;41.61;;
45109;Laerm;30447;48.742;8.972;2023-04-25T02:22:55;38.50;35.04;42.03;;
45109;Laerm;30447;48.742;8.972;2023-04-25T02:25:21;38.80;35.04;42.53;;
45109;Laerm;30447;48.742;8.972;2023-04-25T02:27:48;38.93;35.04;42.29;;
45109;Laerm;30447;48.742;8.972;2023-04-25T02:30:14;38.91;35.04;42.29;;
45109;Laerm;30447;48.742;8.972;2023-04-25T02:32:41;39.78;35.36;45.54;;
45109;Laerm;30447;48.742;8.972;2023-04-25T02:35:08;40.04;35.04;44.58;;
45109;Laerm;30447;48.742;8.972;2023-04-25T02:37:37;39.90;36.45;45.27;;
45109;Laerm;30447;48.742;8.972;2023-04-25T02:40:05;40.39;36.91;43.58;;
45109;Laerm;30447;48.742;8.972;2023-04-25T02:42:32;40.10;36.45;45.20;;
45109;Laerm;30447;48.742;8.972;2023-04-25T02:44:58;40.07;36.20;43.39;;
45109;Laerm;30447;48.742;8.972;2023-04-25T02:47:25;40.30;36.45;43.63;;
45109;Laerm;30447;48.742;8.972;2023-04-25T02:49:51;40.26;36.91;43.99;;
45109;Laerm;30447;48.742;8.972;2023-04-25T02:52:18;40.31;36.69;53.59;;
45109;Laerm;30447;48.742;8.972;2023-04-25T02:54:44;40.61;37.52;44.03;;
45109;Laerm;30447;48.742;8.972;2023-04-25T02:57:11;40.73;36.69;43.77;;
45109;Laerm;30447;48.742;8.972;2023-04-25T02:59:37;40.65;36.91;44.27;;
45109;Laerm;30447;48.742;8.972;2023-04-25T03:02:04;40.65;37.12;43.99;;
45109;Laerm;30447;48.742;8.972;2023-04-25T03:04:30;40.59;36.69;48.34;;
45109;Laerm;30447;48.742;8.972;2023-04-25T03:06:57;40.30;36.45;46.23;;
45109;Laerm;30447;48.742;8.972;2023-04-25T03:09:24;40.47;37.52;49.27;;
45109;Laerm;30447;48.742;8.972;2023-04-25T03:11:50;40.73;37.32;43.29;;
45109;Laerm;30447;48.742;8.972;2023-04-25T03:14:17;40.80;37.52;43.68;;
45109;Laerm;30447;48.742;8.972;2023-04-25T03:16:43;40.88;37.12;44.90;;
45109;Laerm;30447;48.742;8.972;2023-04-25T03:19:09;41.33;38.32;44.69;;
45109;Laerm;30447;48.742;8.972;2023-04-25T03:21:36;41.86;39.21;44.23;;
45109;Laerm;30447;48.742;8.972;2023-04-25T03:24:04;43.11;39.58;49.24;;
45109;Laerm;30447;48.742;8.972;2023-04-25T03:26:31;41.98;37.70;54.55;;
45109;Laerm;30447;48.742;8.972;2023-04-25T03:28:57;41.94;38.05;54.76;;
45109;Laerm;30447;48.742;8.972;2023-04-25T03:31:23;42.35;37.12;57.86;;
45109;Laerm;30447;48.742;8.972;2023-04-25T03:33:50;43.21;38.95;53.71;;
45109;Laerm;30447;48.742;8.972;2023-04-25T03:36:16;44.05;38.52;55.99;;
45109;Laerm;30447;48.742;8.972;2023-04-25T03:38:43;43.90;38.95;55.35;;
45109;Laerm;30447;48.742;8.972;2023-04-25T03:41:09;43.22;38.81;52.83;;
45109;Laerm;30447;48.742;8.972;2023-04-25T03:43:36;44.20;39.58;55.27;;
45109;Laerm;30447;48.742;8.972;2023-04-25T03:46:02;43.67;38.95;53.41;;
45109;Laerm;30447;48.742;8.972;2023-04-25T03:48:29;44.22;38.52;53.89;;
45109;Laerm;30447;48.742;8.972;2023-04-25T03:50:55;44.12;39.46;55.13;;
45109;Laerm;30447;48.742;8.972;2023-04-25T03:53:22;44.28;39.81;57.57;;
45109;Laerm;30447;48.742;8.972;2023-04-25T03:55:48;43.82;39.21;56.19;;
45109;Laerm;30447;48.742;8.972;2023-04-25T03:58:14;43.96;38.52;57.43;;
45109;Laerm;30447;48.742;8.972;2023-04-25T04:00:41;43.33;37.88;53.37;;
45109;Laerm;30447;48.742;8.972;2023-04-25T04:03:07;43.45;37.88;56.10;;
45109;Laerm;30447;48.742;8.972;2023-04-25T04:05:34;43.98;39.81;59.40;;
45109;Laerm;30447;48.742;8.972;2023-04-25T04:08:00;43.36;39.58;51.90;;
45109;Laerm;30447;48.742;8.972;2023-04-25T04:10:27;43.74;38.81;56.47;;
45109;Laerm;30447;48.742;8.972;2023-04-25T04:12:53;44.69;38.67;56.03;;
45109;Laerm;30447;48.742;8.972;2023-04-25T04:15:20;43.66;38.95;57.80;;
45109;Laerm;30447;48.742;8.972;2023-04-25T04:17:48;44.27;38.81;60.90;;
45109;Laerm;30447;48.742;8.972;2023-04-25T04:20:14;46.25;38.21;58.58;;
45109;Laerm;30447;48.742;8.972;2023-04-25T04:22:41;47.87;39.92;62.01;;
45109;Laerm;30447;48.742;8.972;2023-04-25T04:25:08;44.70;38.81;61.84;;
45109;Laerm;30447;48.742;8.972;2023-04-25T04:27:34;42.48;38.02;53.64;;
45109;Laerm;30447;48.742;8.972;2023-04-25T04:30:01;42.24;38.52;60.28;;
45109;Laerm;30447;48.742;8.972;2023-04-25T04:32:27;42.13;38.67;46.43;;
45109;Laerm;30447;48.742;8.972;2023-04-25T04:34:56;41.73;38.81;52.23;;
45109;Laerm;30447;48.742;8.972;2023-04-25T04:37:23;42.42;39.08;56.63;;
45109;Laerm;30447;48.742;8.972;2023-04-25T04:39:50;42.54;39.46;52.41;;
45109;Laerm;30447;48.742;8.972;2023-04-25T04:42:16;43.08;39.92;53.82;;
45109;Laerm;30447;48.742;8.972;2023-04-25T04:44:43;43.82;40.98;52.78;;
45109;Laerm;30447;48.742;8.972;2023-04-25T04:47:10;44.20;41.75;51.84;;
45109;Laerm;30447;48.742;8.972;2023-04-25T04:49:40;45.02;42.41;57.68;;
45109;Laerm;30447;48.742;8.972;2023-04-25T04:52:06;44.75;41.89;52.52;;
45109;Laerm;30447;48.742;8.972;2023-04-25T04:54:33;43.89;40.71;58.52;;
45109;Laerm;30447;48.742;8.972;2023-04-25T04:57:01;44.22;41.30;53.60;;
45109;Laerm;30447;48.742;8.972;2023-04-25T04:59:27;44.16;41.75;52.64;;
45109;Laerm;30447;48.742;8.972;2023-04-25T05:01:54;44.27;41.89;51.42;;
45109;Laerm;30447;48.742;8.972;2023-04-25T05:04:20;44.00;41.46;53.79;;
45109;Laerm;30447;48.742;8.972;2023-04-25T05:06:47;43.72;41.61;49.56;;
45109;Laerm;30447;48.742;8.972;2023-04-25T05:09:13;44.39;41.68;60.73;;
45109;Laerm;30447;48.742;8.972;2023-04-25T05:11:41;44.61;41.89;59.63;;
45109;Laerm;30447;48.742;8.972;2023-04-25T05:14:07;44.56;40.98;58.40;;
45109;Laerm;30447;48.742;8.972;2023-04-25T05:16:34;49.50;40.33;64.81;;
45109;Laerm;30447;48.742;8.972;2023-04-25T05:19:00;43.52;40.23;60.74;;
45109;Laerm;30447;48.742;8.972;2023-04-25T05:21:27;50.71;39.46;64.36;;
45109;Laerm;30447;48.742;8.972;2023-04-25T05:23:54;46.43;38.52;59.89;;
45109;Laerm;30447;48.742;8.972;2023-04-25T05:26:20;42.66;39.21;52.04;;
45109;Laerm;30447;48.742;8.972;2023-04-25T05:28:47;42.87;38.21;51.95;;
45109;Laerm;30447;48.742;8.972;2023-04-25T05:31:13;42.38;38.67;53.16;;
45109;Laerm;30447;48.742;8.972;2023-04-25T05:33:40;44.30;37.88;57.29;;
45109;Laerm;30447;48.742;8.972;2023-04-25T05:36:07;43.36;38.52;57.72;;
45109;Laerm;30447;48.742;8.972;2023-04-25T05:38:33;42.32;37.70;52.21;;
45109;Laerm;30447;48.742;8.972;2023-04-25T05:41:00;42.31;37.70;52.42;;
45109;Laerm;30447;48.742;8.972;2023-04-25T05:43:26;41.99;36.91;55.30;;
45109;Laerm;30447;48.742;8.972;2023-04-25T05:45:53;45.06;37.32;61.01;;
45109;Laerm;30447;48.742;8.972;2023-04-25T05:48:19;41.66;36.45;57.38;;
45109;Laerm;30447;48.742;8.972;2023-04-25T05:50:46;40.96;36.20;60.51;;
45109;Laerm;30447;48.742;8.972;2023-04-25T05:53:12;41.42;36.69;53.47;;
45109;Laerm;30447;48.742;8.972;2023-04-25T05:55:39;41.54;36.45;54.97;;
45109;Laerm;30447;48.742;8.972;2023-04-25T05:58:06;43.82;36.91;60.85;;
45109;Laerm;30447;48.742;8.972;2023-04-25T06:00:35;53.09;37.88;69.45;;
45109;Laerm;30447;48.742;8.972;2023-04-25T06:03:01;44.12;37.32;59.46;;
45109;Laerm;30447;48.742;8.972;2023-04-25T06:05:28;42.65;37.32;58.17;;
45109;Laerm;30447;48.742;8.972;2023-04-25T06:07:54;40.51;37.52;49.19;;
45109;Laerm;30447;48.742;8.972;2023-04-25T06:10:21;42.10;38.05;58.09;;
45109;Laerm;30447;48.742;8.972;2023-04-25T06:12:48;42.56;39.08;53.71;;
45109;Laerm;30447;48.742;8.972;2023-04-25T06:15:15;42.93;39.08;55.26;;
45109;Laerm;30447;48.742;8.972;2023-04-25T06:17:42;48.52;37.70;68.32;;
45109;Laerm;30447;48.742;8.972;2023-04-25T06:20:08;42.67;37.70;65.47;;
45109;Laerm;30447;48.742;8.972;2023-04-25T06:22:35;47.05;38.81;61.44;;
45109;Laerm;30447;48.742;8.972;2023-04-25T06:25:02;50.18;39.08;66.10;;
45109;Laerm;30447;48.742;8.972;2023-04-25T06:27:30;42.32;39.34;49.27;;
45109;Laerm;30447;48.742;8.972;2023-04-25T06:29:57;41.54;38.52;47.48;;
45109;Laerm;30447;48.742;8.972;2023-04-25T06:32:23;45.54;39.08;61.16;;
45109;Laerm;30447;48.742;8.972;2023-04-25T06:34:49;47.38;39.70;63.98;;
45109;Laerm;30447;48.742;8.972;2023-04-25T06:37:16;42.90;39.81;61.82;;
45109;Laerm;30447;48.742;8.972;2023-04-25T06:39:43;42.84;40.33;51.12;;
45109;Laerm;30447;48.742;8.972;2023-04-25T06:42:09;43.37;39.46;55.93;;
45109;Laerm;30447;48.742;8.972;2023-04-25T06:44:36;43.96;39.21;57.88;;
45109;Laerm;30447;48.742;8.972;2023-04-25T06:47:02;43.02;38.05;56.25;;
45109;Laerm;30447;48.742;8.972;2023-04-25T06:49:29;43.04;38.95;61.16;;
45109;Laerm;30447;48.742;8.972;2023-04-25T06:51:55;47.98;39.21;68.06;;
45109;Laerm;30447;48.742;8.972;2023-04-25T06:54:22;47.29;39.70;61.76;;
45109;Laerm;30447;48.742;8.972;2023-04-25T06:56:48;45.41;39.46;63.67;;
45109;Laerm;30447;48.742;8.972;2023-04-25T06:59:15;45.59;39.34;63.49;;
45109;Laerm;30447;48.742;8.972;2023-04-25T07:01:41;41.34;38.67;50.05;;
45109;Laerm;30447;48.742;8.972;2023-04-25T07:04:08;42.17;39.81;56.59;;
45109;Laerm;30447;48.742;8.972;2023-04-25T07:06:34;42.86;40.03;59.80;;
45109;Laerm;30447;48.742;8.972;2023-04-25T07:09:04;42.58;39.46;57.27;;
45109;Laerm;30447;48.742;8.972;2023-04-25T07:11:31;45.21;39.92;59.23;;
45109;Laerm;30447;48.742;8.972;2023-04-25T07:13:58;41.72;39.21;55.07;;
45109;Laerm;30447;48.742;8.972;2023-04-25T07:16:24;42.29;39.08;59.92;;
45109;Laerm;30447;48.742;8.972;2023-04-25T07:18:50;44.05;38.81;63.36;;
45109;Laerm;30447;48.742;8.972;2023-04-25T07:21:17;50.57;40.23;66.42;;
45109;Laerm;30447;48.742;8.972;2023-04-25T07:23:43;42.77;40.89;50.96;;
45109;Laerm;30447;48.742;8.972;2023-04-25T07:26:10;50.02;40.89;64.95;;
45109;Laerm;30447;48.742;8.972;2023-04-25T07:28:37;43.51;41.30;55.63;;
45109;Laerm;30447;48.742;8.972;2023-04-25T07:31:03;43.72;41.30;56.16;;
45109;Laerm;30447;48.742;8.972;2023-04-25T07:33:29;44.11;41.22;58.41;;
45109;Laerm;30447;48.742;8.972;2023-04-25T07:35:56;42.58;39.70;52.03;;
45109;Laerm;30447;48.742;8.972;2023-04-25T07:38:22;44.02;40.03;59.88;;
45109;Laerm;30447;48.742;8.972;2023-04-25T07:40:49;44.57;41.30;61.94;;
45109;Laerm;30447;48.742;8.972;2023-04-25T07:43:16;43.93;40.98;54.52;;
45109;Laerm;30447;48.742;8.972;2023-04-25T07:45:44;44.32;41.46;53.93;;
45109;Laerm;30447;48.742;8.972;2023-04-25T07:48:10;43.77;41.03;51.97;;
45109;Laerm;30447;48.742;8.972;2023-04-25T07:50:37;54.98;39.70;72.36;;
45109;Laerm;30447;48.742;8.972;2023-04-25T07:53:03;44.98;38.52;64.85;;
45109;Laerm;30447;48.742;8.972;2023-04-25T07:55:30;53.18;39.34;67.23;;
45109;Laerm;30447;48.742;8.972;2023-04-25T07:57:56;43.03;40.98;54.88;;
45109;Laerm;30447;48.742;8.972;2023-04-25T08:00:23;44.02;40.71;59.31;;
45109;Laerm;30447;48.742;8.972;2023-04-25T08:02:49;44.83;42.47;50.34;;
45109;Laerm;30447;48.742;8.972;2023-04-25T08:05:17;46.34;42.82;58.78;;
45109;Laerm;30447;48.742;8.972;2023-04-25T08:07:43;46.70;43.44;67.71;;
45109;Laerm;30447;48.742;8.972;2023-04-25T08:10:10;43.93;41.30;49.98;;
45109;Laerm;30447;48.742;8.972;2023-04-25T08:12:36;45.07;42.65;61.06;;
45109;Laerm;30447;48.742;8.972;2023-04-25T08:15:04;45.29;42.88;55.66;;
45109;Laerm;30447;48.742;8.972;2023-04-25T08:17:31;45.91;42.85;52.02;;
45109;Laerm;30447;48.742;8.972;2023-04-25T08:19:58;49.46;41.53;64.21;;
45109;Laerm;30447;48.742;8.972;2023-04-25T08:22:24;44.15;40.43;57.08;;
45109;Laerm;30447;48.742;8.972;2023-04-25T08:24:50;45.08;41.75;60.55;;
45109;Laerm;30447;48.742;8.972;2023-04-25T08:27:20;50.14;39.92;64.68;;
45109;Laerm;30447;48.742;8.972;2023-04-25T08:29:47;52.11;39.21;69.55;;
45109;Laerm;30447;48.742;8.972;2023-04-25T08:32:13;42.47;40.13;49.73;;
45109;Laerm;30447;48.742;8.972;2023-04-25T08:34:40;42.41;38.95;51.81;;
45109;Laerm;30447;48.742;8.972;2023-04-25T08:37:08;54.96;37.70;70.83;;
45109;Laerm;30447;48.742;8.972;2023-04-25T08:39:36;46.28;38.05;66.69;;
45109;Laerm;30447;48.742;8.972;2023-04-25T08:42:06;42.29;38.81;53.75;;
45109;Laerm;30447;48.742;8.972;2023-04-25T08:44:36;41.97;39.58;51.08;;
45109;Laerm;30447;48.742;8.972;2023-04-25T08:47:04;46.66;40.33;67.13;;
45109;Laerm;30447;48.742;8.972;2023-04-25T08:49:34;52.66;41.30;66.50;;
45109;Laerm;30447;48.742;8.972;2023-04-25T08:52:03;46.51;40.89;62.76;;
45109;Laerm;30447;48.742;8.972;2023-04-25T08:54:32;47.92;41.06;63.34;;
45109;Laerm;30447;48.742;8.972;2023-04-25T08:57:02;45.39;41.68;64.12;;
45109;Laerm;30447;48.742;8.972;2023-04-25T08:59:31;45.08;41.38;55.74;;
45109;Laerm;30447;48.742;8.972;2023-04-25T09:01:58;43.89;41.38;61.81;;
45109;Laerm;30447;48.742;8.972;2023-04-25T09:04:24;44.66;41.22;64.12;;
45109;Laerm;30447;48.742;8.972;2023-04-25T09:06:51;45.12;41.75;60.34;;
45109;Laerm;30447;48.742;8.972;2023-04-25T09:09:17;42.97;40.36;51.33;;
45109;Laerm;30447;48.742;8.972;2023-04-25T09:11:44;47.07;40.71;61.07;;
45109;Laerm;30447;48.742;8.972;2023-04-25T09:14:22;42.54;40.03;52.24;;
45109;Laerm;30447;48.742;8.972;2023-04-25T09:19:31;50.30;42.41;68.98;;
45109;Laerm;30447;48.742;8.972;2023-04-25T09:21:59;45.57;42.47;58.85;;
45109;Laerm;30447;48.742;8.972;2023-04-25T09:24:40;44.16;42.09;61.72;;
45109;Laerm;30447;48.742;8.972;2023-04-25T09:27:09;44.58;42.00;60.29;;
45109;Laerm;30447;48.742;8.972;2023-04-25T09:29:38;49.28;42.71;65.77;;
45109;Laerm;30447;48.742;8.972;2023-04-25T09:32:18;44.48;42.59;52.67;;
45109;Laerm;30447;48.742;8.972;2023-04-25T09:34:52;45.99;43.44;54.67;;
45109;Laerm;30447;48.742;8.972;2023-04-25T09:37:27;44.77;42.35;54.30;;
45109;Laerm;30447;48.742;8.972;2023-04-25T09:39:59;43.59;41.53;54.58;;
45109;Laerm;30447;48.742;8.972;2023-04-25T09:42:27;43.81;41.06;56.97;;
45109;Laerm;30447;48.742;8.972;2023-04-25T09:44:56;43.05;40.80;48.91;;
45109;Laerm;30447;48.742;8.972;2023-04-25T09:47:24;46.44;40.23;66.22;;
45109;Laerm;30447;48.742;8.972;2023-04-25T09:49:52;49.58;39.81;65.60;;
45109;Laerm;30447;48.742;8.972;2023-04-25T09:52:21;43.28;40.71;54.54;;
45109;Laerm;30447;48.742;8.972;2023-04-25T09:54:49;45.04;40.71;61.15;;
45109;Laerm;30447;48.742;8.972;2023-04-25T09:57:18;52.36;40.33;72.95;;
45109;Laerm;30447;48.742;8.972;2023-04-25T09:59:47;47.81;40.03;64.92;;
45109;Laerm;30447;48.742;8.972;2023-04-25T10:02:19;43.13;39.81;57.81;;
45109;Laerm;30447;48.742;8.972;2023-04-25T10:04:52;44.62;37.70;59.49;;
45109;Laerm;30447;48.742;8.972;2023-04-25T10:07:26;47.27;38.95;68.46;;
45109;Laerm;30447;48.742;8.972;2023-04-25T10:10:00;42.04;38.52;55.07;;
45109;Laerm;30447;48.742;8.972;2023-04-25T10:12:29;43.26;38.52;56.99;;
45109;Laerm;30447;48.742;8.972;2023-04-25T10:14:58;51.93;39.08;73.02;;
45109;Laerm;30447;48.742;8.972;2023-04-25T10:17:26;52.06;38.37;70.04;;
45109;Laerm;30447;48.742;8.972;2023-04-25T10:19:54;42.17;38.67;54.84;;
45109;Laerm;30447;48.742;8.972;2023-04-25T10:22:41;48.81;38.95;64.65;;
45109;Laerm;30447;48.742;8.972;2023-04-25T10:25:09;47.60;38.67;65.45;;
45109;Laerm;30447;48.742;8.972;2023-04-25T10:27:36;45.66;38.81;63.49;;
45109;Laerm;30447;48.742;8.972;2023-04-25T10:30:05;44.16;39.46;60.62;;
45109;Laerm;30447;48.742;8.972;2023-04-25T10:32:35;42.93;39.58;64.51;;
45109;Laerm;30447;48.742;8.972;2023-04-25T10:35:16;44.98;39.34;68.88;;
45109;Laerm;30447;48.742;8.972;2023-04-25T10:38:10;42.06;38.67;55.51;;
45109;Laerm;30447;48.742;8.972;2023-04-25T10:40:38;41.78;38.52;59.94;;
45109;Laerm;30447;48.742;8.972;2023-04-25T10:45:59;41.86;39.21;54.84;;
45109;Laerm;30447;48.742;8.972;2023-04-25T10:48:28;42.94;38.67;55.12;;
45109;Laerm;30447;48.742;8.972;2023-04-25T10:51:11;41.35;37.88;51.37;;
45109;Laerm;30447;48.742;8.972;2023-04-25T10:53:38;42.38;38.95;50.35;;
45109;Laerm;30447;48.742;8.972;2023-04-25T10:56:17;42.58;39.21;58.02;;
45109;Laerm;30447;48.742;8.972;2023-04-25T10:58:45;42.26;38.95;51.47;;
45109;Laerm;30447;48.742;8.972;2023-04-25T11:01:13;41.40;38.81;52.03;;
45109;Laerm;30447;48.742;8.972;2023-04-25T11:03:41;42.41;39.57;56.97;;
45109;Laerm;30447;48.742;8.972;2023-04-25T11:06:29;42.34;39.21;52.41;;
45109;Laerm;30447;48.742;8.972;2023-04-25T11:09:01;42.89;40.13;50.05;;
45109;Laerm;30447;48.742;8.972;2023-04-25T11:11:29;42.12;39.21;47.72;;
45109;Laerm;30447;48.742;8.972;2023-04-25T11:13:56;45.82;39.81;61.22;;
45109;Laerm;30447;48.742;8.972;2023-04-25T11:16:24;43.75;41.22;54.25;;
45109;Laerm;30447;48.742;8.972;2023-04-25T11:18:51;43.29;39.70;62.75;;
45109;Laerm;30447;48.742;8.972;2023-04-25T11:21:18;42.73;38.95;57.38;;
45109;Laerm;30447;48.742;8.972;2023-04-25T11:23:46;43.53;38.99;55.83;;
45109;Laerm;30447;48.742;8.972;2023-04-25T11:26:13;42.97;38.05;52.91;;
45109;Laerm;30447;48.742;8.972;2023-04-25T11:28:40;56.99;39.70;77.57;;
45109;Laerm;30447;48.742;8.972;2023-04-25T11:31:06;42.22;38.87;51.89;;
45109;Laerm;30447;48.742;8.972;2023-04-25T11:33:33;41.57;38.52;57.41;;
45109;Laerm;30447;48.742;8.972;2023-04-25T11:35:59;42.63;37.88;59.06;;
45109;Laerm;30447;48.742;8.972;2023-04-25T11:38:26;42.14;38.37;59.28;;
45109;Laerm;30447;48.742;8.972;2023-04-25T11:40:53;40.66;37.52;56.62;;
45109;Laerm;30447;48.742;8.972;2023-04-25T11:43:21;43.69;38.81;64.90;;
45109;Laerm;30447;48.742;8.972;2023-04-25T11:45:51;41.34;37.88;46.97;;
45109;Laerm;30447;48.742;8.972;2023-04-25T11:48:19;42.30;37.88;55.30;;
45109;Laerm;30447;48.742;8.972;2023-04-25T11:50:46;50.47;39.46;66.41;;
45109;Laerm;30447;48.742;8.972;2023-04-25T11:53:12;47.17;40.33;63.71;;
45109;Laerm;30447;48.742;8.972;2023-04-25T11:55:39;44.62;41.14;57.48;;
45109;Laerm;30447;48.742;8.972;2023-04-25T11:58:06;47.01;41.46;58.33;;
45109;Laerm;30447;48.742;8.972;2023-04-25T12:00:33;45.28;40.43;56.66;;
45109;Laerm;30447;48.742;8.972;2023-04-25T12:02:59;45.71;41.06;58.25;;
45109;Laerm;30447;48.742;8.972;2023-04-25T12:05:29;45.21;41.68;57.14;;
45109;Laerm;30447;48.742;8.972;2023-04-25T12:07:56;43.01;39.34;53.20;;
45109;Laerm;30447;48.742;8.972;2023-04-25T12:10:24;43.26;40.03;53.80;;
45109;Laerm;30447;48.742;8.972;2023-04-25T12:12:51;43.99;40.43;59.77;;
45109;Laerm;30447;48.742;8.972;2023-04-25T12:15:27;44.23;39.81;59.08;;
45109;Laerm;30447;48.742;8.972;2023-04-25T12:17:54;42.99;39.08;53.13;;
45109;Laerm;30447;48.742;8.972;2023-04-25T12:20:26;44.88;39.08;61.19;;
45109;Laerm;30447;48.742;8.972;2023-04-25T12:22:53;45.07;39.34;61.67;;
45109;Laerm;30447;48.742;8.972;2023-04-25T12:25:36;45.50;38.67;60.76;;
45109;Laerm;30447;48.742;8.972;2023-04-25T12:28:15;43.80;38.95;54.11;;
45109;Laerm;30447;48.742;8.972;2023-04-25T12:33:33;44.55;39.81;56.74;;
45109;Laerm;30447;48.742;8.972;2023-04-25T12:36:00;44.48;38.21;58.28;;
45109;Laerm;30447;48.742;8.972;2023-04-25T12:38:31;44.29;37.52;59.88;;
45109;Laerm;30447;48.742;8.972;2023-04-25T12:40:58;44.28;37.32;60.49;;
45109;Laerm;30447;48.742;8.972;2023-04-25T12:43:24;41.05;37.70;51.89;;
45109;Laerm;30447;48.742;8.972;2023-04-25T12:45:52;41.63;38.52;48.84;;
45109;Laerm;30447;48.742;8.972;2023-04-25T12:48:20;40.82;37.88;48.05;;
45109;Laerm;30447;48.742;8.972;2023-04-25T12:50:47;41.07;38.05;51.77;;
45109;Laerm;30447;48.742;8.972;2023-04-25T12:53:16;48.32;38.05;66.89;;
45109;Laerm;30447;48.742;8.972;2023-04-25T12:55:43;43.81;37.52;56.14;;
45109;Laerm;30447;48.742;8.972;2023-04-25T12:58:09;41.28;37.70;51.79;;
45109;Laerm;30447;48.742;8.972;2023-04-25T13:00:36;41.38;37.12;52.33;;
45109;Laerm;30447;48.742;8.972;2023-04-25T13:03:02;41.03;37.52;52.47;;
45109;Laerm;30447;48.742;8.972;2023-04-25T13:05:29;41.02;37.12;53.98;;
45109;Laerm;30447;48.742;8.972;2023-04-25T13:07:56;41.22;37.88;55.43;;
45109;Laerm;30447;48.742;8.972;2023-04-25T13:10:23;41.34;37.88;52.59;;
45109;Laerm;30447;48.742;8.972;2023-04-25T13:12:49;48.12;37.52;68.75;;
45109;Laerm;30447;48.742;8.972;2023-04-25T13:15:16;47.80;38.52;66.63;;
45109;Laerm;30447;48.742;8.972;2023-04-25T13:17:43;42.40;38.95;57.75;;
45109;Laerm;30447;48.742;8.972;2023-04-25T13:20:10;43.04;38.05;58.05;;
45109;Laerm;30447;48.742;8.972;2023-04-25T13:22:40;41.15;38.21;52.08;;
45109;Laerm;30447;48.742;8.972;2023-04-25T13:25:08;41.70;38.21;53.43;;
45109;Laerm;30447;48.742;8.972;2023-04-25T13:27:35;45.18;38.05;62.52;;
45109;Laerm;30447;48.742;8.972;2023-04-25T13:30:04;43.53;38.05;55.80;;
45109;Laerm;30447;48.742;8.972;2023-04-25T13:32:36;42.10;37.32;59.85;;
45109;Laerm;30447;48.742;8.972;2023-04-25T13:35:05;47.25;38.05;72.07;;
45109;Laerm;30447;48.742;8.972;2023-04-25T13:37:32;42.01;37.12;52.33;;
45109;Laerm;30447;48.742;8.972;2023-04-25T13:40:00;42.39;39.08;52.39;;
45109;Laerm;30447;48.742;8.972;2023-04-25T13:42:26;44.03;38.81;58.48;;
45109;Laerm;30447;48.742;8.972;2023-04-25T13:44:53;42.16;38.95;58.91;;
45109;Laerm;30447;48.742;8.972;2023-04-25T13:47:19;42.36;39.21;52.96;;
45109;Laerm;30447;48.742;8.972;2023-04-25T13:49:46;43.55;39.21;62.06;;
45109;Laerm;30447;48.742;8.972;2023-04-25T13:52:12;43.75;38.95;57.20;;
45109;Laerm;30447;48.742;8.972;2023-04-25T13:54:39;44.04;39.08;59.25;;